sensor_id;sensor_type;location;lat;lon;timestamp;temperature;humidity
16515;DHT22;8370;52.556;7.970;2023-12-29T00:02:05;10.40;99.90
16515;DHT22;8370;52.556;7.970;2023-12-29T00:04:31;10.50;99.90
16515;DHT22;8370;52.556;7.970;2023-12-29T00:06:56;10.50;99.90
16515;DHT22;8370;52.556;7.970;2023-12-29T00:09:22;10.50;99.90
16515;DHT22;8370;52.556;7.970;2023-12-29T00:11:49;10.40;99.90
16515;DHT22;8370;52.556;7.970;2023-12-29T00:14:15;10.20;99.90
16515;DHT22;8370;52.556;7.970;2023-12-29T00:16:40;10.00;99.90
16515;DHT22;8370;52.556;7.970;2023-12-29T00:19:06;9.90;99.90
16515;DHT22;8370;52.556;7.970;2023-12-29T00:21:31;9.80;99.90
16515;DHT22;8370;52.556;7.970;2023-12-29T00:23:57;9.70;99.90
16515;DHT22;8370;52.556;7.970;2023-12-29T00:26:23;9.70;99.90
16515;DHT22;8370;52.556;7.970;2023-12-29T00:28:48;9.60;99.90
16515;DHT22;8370;52.556;7.970;2023-12-29T00:31:14;9.60;99.90
16515;DHT22;8370;52.556;7.970;2023-12-29T00:33:46;9.50;99.90
16515;DHT22;8370;52.556;7.970;2023-12-29T00:36:15;9.50;99.90
16515;DHT22;8370;52.556;7.970;2023-12-29T00:38:41;9.60;99.90
16515;DHT22;8370;52.556;7.970;2023-12-29T00:41:07;9.60;99.90
16515;DHT22;8370;52.556;7.970;2023-12-29T00:43:33;9.60;99.90
16515;DHT22;8370;52.556;7.970;2023-12-29T00:45:58;9.70;99.90
16515;DHT22;8370;52.556;7.970;2023-12-29T00:48:24;9.80;99.90
16515;DHT22;8370;52.556;7.970;2023-12-29T00:50:49;9.80;99.90
16515;DHT22;8370;52.556;7.970;2023-12-29T00:53:15;9.80;99.90
16515;DHT22;8370;52.556;7.970;2023-12-29T00:55:40;9.70;99.90
16515;DHT22;8370;52.556;7.970;2023-12-29T00:58:06;9.60;99.90
16515;DHT22;8370;52.556;7.970;2023-12-29T01:00:31;9.50;99.90
16515;DHT22;8370;52.556;7.970;2023-12-29T01:02:57;9.50;99.90
16515;DHT22;8370;52.556;7.970;2023-12-29T01:05:22;9.40;99.90
16515;DHT22;8370;52.556;7.970;2023-12-29T01:07:48;9.40;99.90
16515;DHT22;8370;52.556;7.970;2023-12-29T01:10:13;9.40;99.90
16515;DHT22;8370;52.556;7.970;2023-12-29T01:12:39;9.40;99.90
16515;DHT22;8370;52.556;7.970;2023-12-29T01:15:05;9.40;99.90
16515;DHT22;8370;52.556;7.970;2023-12-29T01:17:30;9.30;99.90
16515;DHT22;8370;52.556;7.970;2023-12-29T01:19:56;9.40;99.90
16515;DHT22;8370;52.556;7.970;2023-12-29T01:22:21;9.30;99.90
16515;DHT22;8370;52.556;7.970;2023-12-29T01:24:47;9.40;99.90
16515;DHT22;8370;52.556;7.970;2023-12-29T01:27:12;9.40;99.90
16515;DHT22;8370;52.556;7.970;2023-12-29T01:29:38;9.40;99.90
16515;DHT22;8370;52.556;7.970;2023-12-29T01:32:04;9.40;99.90
16515;DHT22;8370;52.556;7.970;2023-12-29T01:34:33;9.40;99.90
16515;DHT22;8370;52.556;7.970;2023-12-29T01:36:59;9.40;99.90
16515;DHT22;8370;52.556;7.970;2023-12-29T01:39:25;9.40;99.90
16515;DHT22;8370;52.556;7.970;2023-12-29T01:41:50;9.50;99.90
16515;DHT22;8370;52.556;7.970;2023-12-29T01:44:18;9.40;99.90
16515;DHT22;8370;52.556;7.970;2023-12-29T01:46:45;9.50;99.90
16515;DHT22;8370;52.556;7.970;2023-12-29T01:49:14;9.50;99.90
16515;DHT22;8370;52.556;7.970;2023-12-29T01:51:41;9.60;99.90
16515;DHT22;8370;52.556;7.970;2023-12-29T01:54:08;9.60;99.90
16515;DHT22;8370;52.556;7.970;2023-12-29T01:56:33;9.70;99.90
16515;DHT22;8370;52.556;7.970;2023-12-29T01:58:59;9.70;99.90
16515;DHT22;8370;52.556;7.970;2023-12-29T02:01:24;9.80;99.90
16515;DHT22;8370;52.556;7.970;2023-12-29T02:03:50;9.90;99.90
16515;DHT22;8370;52.556;7.970;2023-12-29T02:06:16;9.90;99.90
16515;DHT22;8370;52.556;7.970;2023-12-29T02:08:43;9.90;99.90
16515;DHT22;8370;52.556;7.970;2023-12-29T02:11:08;10.00;99.90
16515;DHT22;8370;52.556;7.970;2023-12-29T02:13:34;9.90;99.90
16515;DHT22;8370;52.556;7.970;2023-12-29T02:16:09;10.00;99.90
16515;DHT22;8370;52.556;7.970;2023-12-29T02:18:38;9.90;99.90
16515;DHT22;8370;52.556;7.970;2023-12-29T02:21:06;10.00;99.90
16515;DHT22;8370;52.556;7.970;2023-12-29T02:23:31;10.00;99.90
16515;DHT22;8370;52.556;7.970;2023-12-29T02:26:01;10.00;99.90
16515;DHT22;8370;52.556;7.970;2023-12-29T02:28:29;10.00;99.90
16515;DHT22;8370;52.556;7.970;2023-12-29T02:31:00;10.00;99.90
16515;DHT22;8370;52.556;7.970;2023-12-29T02:33:28;10.00;99.90
16515;DHT22;8370;52.556;7.970;2023-12-29T02:35:56;10.00;99.90
16515;DHT22;8370;52.556;7.970;2023-12-29T02:38:24;10.00;99.90
16515;DHT22;8370;52.556;7.970;2023-12-29T02:40:54;10.00;99.90
16515;DHT22;8370;52.556;7.970;2023-12-29T02:43:20;10.10;99.90
16515;DHT22;8370;52.556;7.970;2023-12-29T02:45:45;10.10;99.90
16515;DHT22;8370;52.556;7.970;2023-12-29T02:48:11;10.10;99.90
16515;DHT22;8370;52.556;7.970;2023-12-29T02:50:36;10.10;99.90
16515;DHT22;8370;52.556;7.970;2023-12-29T02:53:02;10.20;99.90
16515;DHT22;8370;52.556;7.970;2023-12-29T02:55:29;10.30;99.90
16515;DHT22;8370;52.556;7.970;2023-12-29T02:57:55;10.40;99.90
16515;DHT22;8370;52.556;7.970;2023-12-29T03:00:20;10.40;99.90
16515;DHT22;8370;52.556;7.970;2023-12-29T03:02:46;10.50;99.90
16515;DHT22;8370;52.556;7.970;2023-12-29T03:05:11;10.50;99.90
16515;DHT22;8370;52.556;7.970;2023-12-29T03:07:37;10.60;99.90
16515;DHT22;8370;52.556;7.970;2023-12-29T03:10:03;10.70;99.90
16515;DHT22;8370;52.556;7.970;2023-12-29T03:12:28;10.60;99.90
16515;DHT22;8370;52.556;7.970;2023-12-29T03:14:55;10.70;99.90
16515;DHT22;8370;52.556;7.970;2023-12-29T03:17:21;10.70;99.90
16515;DHT22;8370;52.556;7.970;2023-12-29T03:19:47;10.60;99.90
16515;DHT22;8370;52.556;7.970;2023-12-29T03:22:12;10.60;99.90
16515;DHT22;8370;52.556;7.970;2023-12-29T03:24:40;10.60;99.90
16515;DHT22;8370;52.556;7.970;2023-12-29T03:27:06;10.70;99.90
16515;DHT22;8370;52.556;7.970;2023-12-29T03:29:31;10.60;99.90
16515;DHT22;8370;52.556;7.970;2023-12-29T03:31:57;10.60;99.90
16515;DHT22;8370;52.556;7.970;2023-12-29T03:34:22;10.50;99.90
16515;DHT22;8370;52.556;7.970;2023-12-29T03:36:48;10.50;99.90
16515;DHT22;8370;52.556;7.970;2023-12-29T03:39:13;10.40;99.90
16515;DHT22;8370;52.556;7.970;2023-12-29T03:41:39;10.40;99.90
16515;DHT22;8370;52.556;7.970;2023-12-29T03:44:04;10.30;99.90
16515;DHT22;8370;52.556;7.970;2023-12-29T03:46:31;10.30;99.90
16515;DHT22;8370;52.556;7.970;2023-12-29T03:48:57;10.20;99.90
16515;DHT22;8370;52.556;7.970;2023-12-29T03:51:22;10.20;99.90
16515;DHT22;8370;52.556;7.970;2023-12-29T03:53:48;10.10;99.90
16515;DHT22;8370;52.556;7.970;2023-12-29T03:56:15;10.00;99.90
16515;DHT22;8370;52.556;7.970;2023-12-29T03:58:44;9.90;99.90
16515;DHT22;8370;52.556;7.970;2023-12-29T04:01:14;9.80;99.90
16515;DHT22;8370;52.556;7.970;2023-12-29T04:03:40;9.80;99.90
16515;DHT22;8370;52.556;7.970;2023-12-29T04:06:07;9.70;99.90
16515;DHT22;8370;52.556;7.970;2023-12-29T04:08:33;9.70;99.90
16515;DHT22;8370;52.556;7.970;2023-12-29T04:10:59;9.70;99.90
16515;DHT22;8370;52.556;7.970;2023-12-29T04:13:24;9.70;99.90
16515;DHT22;8370;52.556;7.970;2023-12-29T04:15:50;9.70;99.90
16515;DHT22;8370;52.556;7.970;2023-12-29T04:18:15;9.70;99.90
16515;DHT22;8370;52.556;7.970;2023-12-29T04:20:41;9.70;99.90
16515;DHT22;8370;52.556;7.970;2023-12-29T04:23:06;9.60;99.90
16515;DHT22;8370;52.556;7.970;2023-12-29T04:25:33;9.50;99.90
16515;DHT22;8370;52.556;7.970;2023-12-29T04:27:58;9.50;99.90
16515;DHT22;8370;52.556;7.970;2023-12-29T04:30:24;9.60;99.90
16515;DHT22;8370;52.556;7.970;2023-12-29T04:32:49;9.60;99.90
16515;DHT22;8370;52.556;7.970;2023-12-29T04:35:15;9.60;99.90
16515;DHT22;8370;52.556;7.970;2023-12-29T04:37:44;9.60;99.90
16515;DHT22;8370;52.556;7.970;2023-12-29T04:40:11;9.70;99.90
16515;DHT22;8370;52.556;7.970;2023-12-29T04:42:37;9.70;99.90
16515;DHT22;8370;52.556;7.970;2023-12-29T04:45:03;9.70;99.90
16515;DHT22;8370;52.556;7.970;2023-12-29T04:47:29;9.70;99.90
16515;DHT22;8370;52.556;7.970;2023-12-29T04:49:54;9.70;99.90
16515;DHT22;8370;52.556;7.970;2023-12-29T04:52:20;9.80;99.90
16515;DHT22;8370;52.556;7.970;2023-12-29T04:54:46;9.70;99.90
16515;DHT22;8370;52.556;7.970;2023-12-29T04:57:11;9.70;99.90
16515;DHT22;8370;52.556;7.970;2023-12-29T04:59:37;9.70;99.90
16515;DHT22;8370;52.556;7.970;2023-12-29T05:02:02;9.80;99.90
16515;DHT22;8370;52.556;7.970;2023-12-29T05:04:28;9.70;99.90
16515;DHT22;8370;52.556;7.970;2023-12-29T05:06:54;9.60;99.90
16515;DHT22;8370;52.556;7.970;2023-12-29T05:09:19;9.60;99.90
16515;DHT22;8370;52.556;7.970;2023-12-29T05:11:46;9.50;99.90
16515;DHT22;8370;52.556;7.970;2023-12-29T05:14:11;9.50;99.90
16515;DHT22;8370;52.556;7.970;2023-12-29T05:16:37;9.50;99.90
16515;DHT22;8370;52.556;7.970;2023-12-29T05:19:02;9.40;99.90
16515;DHT22;8370;52.556;7.970;2023-12-29T05:21:28;9.50;99.90
16515;DHT22;8370;52.556;7.970;2023-12-29T05:23:53;9.40;99.90
16515;DHT22;8370;52.556;7.970;2023-12-29T05:26:19;9.50;99.90
16515;DHT22;8370;52.556;7.970;2023-12-29T05:28:44;9.40;99.90
16515;DHT22;8370;52.556;7.970;2023-12-29T05:31:10;9.50;99.90
16515;DHT22;8370;52.556;7.970;2023-12-29T05:33:36;9.50;99.90
16515;DHT22;8370;52.556;7.970;2023-12-29T05:36:09;9.50;99.90
16515;DHT22;8370;52.556;7.970;2023-12-29T05:38:35;9.50;99.90
16515;DHT22;8370;52.556;7.970;2023-12-29T05:41:04;9.60;99.90
16515;DHT22;8370;52.556;7.970;2023-12-29T05:43:33;9.60;99.90
16515;DHT22;8370;52.556;7.970;2023-12-29T05:45:59;9.70;99.90
16515;DHT22;8370;52.556;7.970;2023-12-29T05:48:25;9.70;99.90
16515;DHT22;8370;52.556;7.970;2023-12-29T05:50:51;9.70;99.90
16515;DHT22;8370;52.556;7.970;2023-12-29T05:53:16;9.70;99.90
16515;DHT22;8370;52.556;7.970;2023-12-29T05:55:43;9.70;99.90
16515;DHT22;8370;52.556;7.970;2023-12-29T05:58:09;9.70;99.90
16515;DHT22;8370;52.556;7.970;2023-12-29T06:00:38;9.80;99.90
16515;DHT22;8370;52.556;7.970;2023-12-29T06:03:05;9.80;99.90
16515;DHT22;8370;52.556;7.970;2023-12-29T06:05:30;9.80;99.90
16515;DHT22;8370;52.556;7.970;2023-12-29T06:07:56;9.90;99.90
16515;DHT22;8370;52.556;7.970;2023-12-29T06:10:22;9.80;99.90
16515;DHT22;8370;52.556;7.970;2023-12-29T06:12:47;9.80;99.90
16515;DHT22;8370;52.556;7.970;2023-12-29T06:15:13;9.80;99.90
16515;DHT22;8370;52.556;7.970;2023-12-29T06:17:40;9.70;99.90
16515;DHT22;8370;52.556;7.970;2023-12-29T06:20:06;9.60;99.90
16515;DHT22;8370;52.556;7.970;2023-12-29T06:22:32;9.40;99.90
16515;DHT22;8370;52.556;7.970;2023-12-29T06:24:58;9.40;99.90
16515;DHT22;8370;52.556;7.970;2023-12-29T06:27:25;9.40;99.90
16515;DHT22;8370;52.556;7.970;2023-12-29T06:29:50;9.50;99.90
16515;DHT22;8370;52.556;7.970;2023-12-29T06:32:16;9.50;99.90
16515;DHT22;8370;52.556;7.970;2023-12-29T06:34:41;9.50;99.90
16515;DHT22;8370;52.556;7.970;2023-12-29T06:37:07;9.50;99.90
16515;DHT22;8370;52.556;7.970;2023-12-29T06:39:32;9.50;99.90
16515;DHT22;8370;52.556;7.970;2023-12-29T06:41:58;9.50;99.90
16515;DHT22;8370;52.556;7.970;2023-12-29T06:44:23;9.50;99.90
16515;DHT22;8370;52.556;7.970;2023-12-29T06:46:49;9.50;99.90
16515;DHT22;8370;52.556;7.970;2023-12-29T06:49:14;9.50;99.90
16515;DHT22;8370;52.556;7.970;2023-12-29T06:51:40;9.50;99.90
16515;DHT22;8370;52.556;7.970;2023-12-29T06:54:06;9.50;99.90
16515;DHT22;8370;52.556;7.970;2023-12-29T06:56:32;9.50;99.90
16515;DHT22;8370;52.556;7.970;2023-12-29T06:58:58;9.50;99.90
16515;DHT22;8370;52.556;7.970;2023-12-29T07:01:23;9.60;99.90
16515;DHT22;8370;52.556;7.970;2023-12-29T07:03:49;9.50;99.90
16515;DHT22;8370;52.556;7.970;2023-12-29T07:06:15;9.60;99.90
16515;DHT22;8370;52.556;7.970;2023-12-29T07:08:40;9.60;99.90
16515;DHT22;8370;52.556;7.970;2023-12-29T07:11:09;9.60;99.90
16515;DHT22;8370;52.556;7.970;2023-12-29T07:13:36;9.70;99.90
16515;DHT22;8370;52.556;7.970;2023-12-29T07:16:02;9.80;99.90
16515;DHT22;8370;52.556;7.970;2023-12-29T07:18:27;9.80;99.90
16515;DHT22;8370;52.556;7.970;2023-12-29T07:20:53;9.90;99.90
16515;DHT22;8370;52.556;7.970;2023-12-29T07:23:18;10.00;99.90
16515;DHT22;8370;52.556;7.970;2023-12-29T07:25:44;10.00;99.90
16515;DHT22;8370;52.556;7.970;2023-12-29T07:28:09;10.00;99.90
16515;DHT22;8370;52.556;7.970;2023-12-29T07:30:35;10.00;99.90
16515;DHT22;8370;52.556;7.970;2023-12-29T07:33:00;10.10;99.90
16515;DHT22;8370;52.556;7.970;2023-12-29T07:35:27;10.10;99.90
16515;DHT22;8370;52.556;7.970;2023-12-29T07:37:53;10.10;99.90
16515;DHT22;8370;52.556;7.970;2023-12-29T07:40:18;10.10;99.90
16515;DHT22;8370;52.556;7.970;2023-12-29T07:42:45;10.10;99.90
16515;DHT22;8370;52.556;7.970;2023-12-29T07:45:12;10.10;99.90
16515;DHT22;8370;52.556;7.970;2023-12-29T07:47:37;10.10;99.90
16515;DHT22;8370;52.556;7.970;2023-12-29T07:50:04;10.10;99.90
16515;DHT22;8370;52.556;7.970;2023-12-29T07:52:30;10.20;99.90
16515;DHT22;8370;52.556;7.970;2023-12-29T07:54:56;10.20;99.90
16515;DHT22;8370;52.556;7.970;2023-12-29T07:57:21;10.20;99.90
16515;DHT22;8370;52.556;7.970;2023-12-29T07:59:47;10.30;99.90
16515;DHT22;8370;52.556;7.970;2023-12-29T08:02:12;10.30;99.90
16515;DHT22;8370;52.556;7.970;2023-12-29T08:04:38;10.40;99.90
16515;DHT22;8370;52.556;7.970;2023-12-29T08:07:04;10.30;99.90
16515;DHT22;8370;52.556;7.970;2023-12-29T08:09:29;10.30;99.90
16515;DHT22;8370;52.556;7.970;2023-12-29T08:11:55;10.30;99.90
16515;DHT22;8370;52.556;7.970;2023-12-29T08:14:21;10.30;99.90
16515;DHT22;8370;52.556;7.970;2023-12-29T08:16:47;10.30;99.90
16515;DHT22;8370;52.556;7.970;2023-12-29T08:19:12;10.40;99.90
16515;DHT22;8370;52.556;7.970;2023-12-29T08:21:38;10.40;99.90
16515;DHT22;8370;52.556;7.970;2023-12-29T08:24:03;10.40;99.90
16515;DHT22;8370;52.556;7.970;2023-12-29T08:26:29;10.40;99.90
16515;DHT22;8370;52.556;7.970;2023-12-29T08:28:55;10.40;99.90
16515;DHT22;8370;52.556;7.970;2023-12-29T08:31:20;10.40;99.90
16515;DHT22;8370;52.556;7.970;2023-12-29T08:33:48;10.40;99.90
16515;DHT22;8370;52.556;7.970;2023-12-29T08:36:14;10.50;99.90
16515;DHT22;8370;52.556;7.970;2023-12-29T08:38:43;10.50;99.90
16515;DHT22;8370;52.556;7.970;2023-12-29T08:41:08;10.50;99.90
16515;DHT22;8370;52.556;7.970;2023-12-29T08:43:34;10.60;99.90
16515;DHT22;8370;52.556;7.970;2023-12-29T08:46:01;10.60;99.90
16515;DHT22;8370;52.556;7.970;2023-12-29T08:48:27;10.60;99.90
16515;DHT22;8370;52.556;7.970;2023-12-29T08:50:52;10.60;99.90
16515;DHT22;8370;52.556;7.970;2023-12-29T08:53:18;10.70;99.90
16515;DHT22;8370;52.556;7.970;2023-12-29T08:55:43;10.60;99.90
16515;DHT22;8370;52.556;7.970;2023-12-29T08:58:09;10.70;99.90
16515;DHT22;8370;52.556;7.970;2023-12-29T09:00:34;10.70;99.90
16515;DHT22;8370;52.556;7.970;2023-12-29T09:03:00;10.70;99.90
16515;DHT22;8370;52.556;7.970;2023-12-29T09:05:25;10.70;99.90
16515;DHT22;8370;52.556;7.970;2023-12-29T09:07:51;10.70;99.90
16515;DHT22;8370;52.556;7.970;2023-12-29T09:10:16;10.70;99.90
16515;DHT22;8370;52.556;7.970;2023-12-29T09:12:42;10.70;99.90
16515;DHT22;8370;52.556;7.970;2023-12-29T09:15:07;10.70;99.90
16515;DHT22;8370;52.556;7.970;2023-12-29T09:17:34;10.80;99.90
16515;DHT22;8370;52.556;7.970;2023-12-29T09:19:59;10.70;99.90
16515;DHT22;8370;52.556;7.970;2023-12-29T09:22:25;10.70;99.90
16515;DHT22;8370;52.556;7.970;2023-12-29T09:24:50;10.70;99.90
16515;DHT22;8370;52.556;7.970;2023-12-29T09:27:16;10.60;99.90
16515;DHT22;8370;52.556;7.970;2023-12-29T09:29:42;10.60;99.90
16515;DHT22;8370;52.556;7.970;2023-12-29T09:32:08;10.60;99.90
16515;DHT22;8370;52.556;7.970;2023-12-29T09:34:33;10.60;99.90
16515;DHT22;8370;52.556;7.970;2023-12-29T09:36:59;10.50;99.90
16515;DHT22;8370;52.556;7.970;2023-12-29T09:39:24;10.50;99.90
16515;DHT22;8370;52.556;7.970;2023-12-29T09:41:51;10.50;99.90
16515;DHT22;8370;52.556;7.970;2023-12-29T09:44:20;10.50;99.90
16515;DHT22;8370;52.556;7.970;2023-12-29T09:46:50;10.40;99.90
16515;DHT22;8370;52.556;7.970;2023-12-29T09:49:17;10.40;99.90
16515;DHT22;8370;52.556;7.970;2023-12-29T09:51:44;10.40;99.90
16515;DHT22;8370;52.556;7.970;2023-12-29T09:54:10;10.30;99.90
16515;DHT22;8370;52.556;7.970;2023-12-29T09:56:37;10.20;99.90
16515;DHT22;8370;52.556;7.970;2023-12-29T09:59:03;10.00;99.90
16515;DHT22;8370;52.556;7.970;2023-12-29T10:01:29;9.90;99.90
16515;DHT22;8370;52.556;7.970;2023-12-29T10:03:56;9.80;99.90
16515;DHT22;8370;52.556;7.970;2023-12-29T10:06:24;9.80;99.90
16515;DHT22;8370;52.556;7.970;2023-12-29T10:08:50;9.80;99.90
16515;DHT22;8370;52.556;7.970;2023-12-29T10:11:20;9.80;99.90
16515;DHT22;8370;52.556;7.970;2023-12-29T10:13:49;9.80;99.90
16515;DHT22;8370;52.556;7.970;2023-12-29T10:16:28;9.80;99.90
16515;DHT22;8370;52.556;7.970;2023-12-29T10:19:30;9.80;99.90
16515;DHT22;8370;52.556;7.970;2023-12-29T10:24:41;9.80;99.90
16515;DHT22;8370;52.556;7.970;2023-12-29T10:27:11;9.80;99.90
16515;DHT22;8370;52.556;7.970;2023-12-29T10:29:37;9.90;99.90
16515;DHT22;8370;52.556;7.970;2023-12-29T10:32:03;9.90;99.90
16515;DHT22;8370;52.556;7.970;2023-12-29T10:34:28;10.00;99.90
16515;DHT22;8370;52.556;7.970;2023-12-29T10:36:55;10.00;99.90
16515;DHT22;8370;52.556;7.970;2023-12-29T10:39:21;10.00;99.90
16515;DHT22;8370;52.556;7.970;2023-12-29T10:41:47;10.00;99.90
16515;DHT22;8370;52.556;7.970;2023-12-29T10:44:13;10.10;99.90
16515;DHT22;8370;52.556;7.970;2023-12-29T10:46:38;10.10;99.90
16515;DHT22;8370;52.556;7.970;2023-12-29T10:49:11;10.20;99.90
16515;DHT22;8370;52.556;7.970;2023-12-29T10:51:37;10.20;99.90
16515;DHT22;8370;52.556;7.970;2023-12-29T10:54:04;10.30;99.90
16515;DHT22;8370;52.556;7.970;2023-12-29T10:56:33;10.40;99.90
16515;DHT22;8370;52.556;7.970;2023-12-29T10:59:05;10.40;99.90
16515;DHT22;8370;52.556;7.970;2023-12-29T11:01:34;10.50;99.90
16515;DHT22;8370;52.556;7.970;2023-12-29T11:04:04;10.50;99.90
16515;DHT22;8370;52.556;7.970;2023-12-29T11:06:43;10.50;99.90
16515;DHT22;8370;52.556;7.970;2023-12-29T11:09:10;10.50;99.90
16515;DHT22;8370;52.556;7.970;2023-12-29T11:11:37;10.50;99.90
16515;DHT22;8370;52.556;7.970;2023-12-29T11:14:03;10.60;99.90
16515;DHT22;8370;52.556;7.970;2023-12-29T11:16:30;10.60;99.90
16515;DHT22;8370;52.556;7.970;2023-12-29T11:18:58;10.70;99.90
16515;DHT22;8370;52.556;7.970;2023-12-29T11:21:26;10.70;99.90
16515;DHT22;8370;52.556;7.970;2023-12-29T11:23:52;10.80;99.90
16515;DHT22;8370;52.556;7.970;2023-12-29T11:26:18;10.90;99.90
16515;DHT22;8370;52.556;7.970;2023-12-29T11:28:46;10.90;99.90
16515;DHT22;8370;52.556;7.970;2023-12-29T11:31:15;11.00;99.90
16515;DHT22;8370;52.556;7.970;2023-12-29T11:33:44;11.00;99.90
16515;DHT22;8370;52.556;7.970;2023-12-29T11:36:22;11.10;99.90
16515;DHT22;8370;52.556;7.970;2023-12-29T11:38:58;11.10;99.90
16515;DHT22;8370;52.556;7.970;2023-12-29T11:41:33;11.10;99.90
16515;DHT22;8370;52.556;7.970;2023-12-29T11:44:02;11.10;99.90
16515;DHT22;8370;52.556;7.970;2023-12-29T11:49:03;11.10;99.90
16515;DHT22;8370;52.556;7.970;2023-12-29T11:51:42;11.20;99.90
16515;DHT22;8370;52.556;7.970;2023-12-29T11:54:21;11.10;99.90
16515;DHT22;8370;52.556;7.970;2023-12-29T11:56:47;11.20;99.90
16515;DHT22;8370;52.556;7.970;2023-12-29T11:59:26;11.20;99.90
16515;DHT22;8370;52.556;7.970;2023-12-29T12:01:57;11.20;99.90
16515;DHT22;8370;52.556;7.970;2023-12-29T12:04:39;11.30;99.90
16515;DHT22;8370;52.556;7.970;2023-12-29T12:07:15;11.20;99.90
16515;DHT22;8370;52.556;7.970;2023-12-29T12:09:40;11.20;99.90
16515;DHT22;8370;52.556;7.970;2023-12-29T12:12:06;11.30;99.90
16515;DHT22;8370;52.556;7.970;2023-12-29T12:14:51;11.30;99.90
16515;DHT22;8370;52.556;7.970;2023-12-29T12:17:33;11.20;99.90
16515;DHT22;8370;52.556;7.970;2023-12-29T12:20:09;11.00;99.90
16515;DHT22;8370;52.556;7.970;2023-12-29T12:22:35;10.70;99.90
16515;DHT22;8370;52.556;7.970;2023-12-29T12:25:02;10.20;99.90
16515;DHT22;8370;52.556;7.970;2023-12-29T12:27:29;9.60;99.90
16515;DHT22;8370;52.556;7.970;2023-12-29T12:29:56;9.30;99.90
16515;DHT22;8370;52.556;7.970;2023-12-29T12:32:27;9.20;99.90
16515;DHT22;8370;52.556;7.970;2023-12-29T12:34:53;9.20;99.90
16515;DHT22;8370;52.556;7.970;2023-12-29T12:37:27;9.20;99.90
16515;DHT22;8370;52.556;7.970;2023-12-29T12:39:53;9.30;99.90
16515;DHT22;8370;52.556;7.970;2023-12-29T12:42:22;9.50;99.90
16515;DHT22;8370;52.556;7.970;2023-12-29T12:45:06;9.70;99.90
16515;DHT22;8370;52.556;7.970;2023-12-29T12:47:42;9.80;99.90
16515;DHT22;8370;52.556;7.970;2023-12-29T12:50:07;9.80;99.90
16515;DHT22;8370;52.556;7.970;2023-12-29T12:52:35;9.90;99.90
16515;DHT22;8370;52.556;7.970;2023-12-29T12:55:02;9.60;99.90
16515;DHT22;8370;52.556;7.970;2023-12-29T12:57:28;9.40;99.90
16515;DHT22;8370;52.556;7.970;2023-12-29T12:59:55;9.20;99.90
16515;DHT22;8370;52.556;7.970;2023-12-29T13:02:21;9.00;99.90
16515;DHT22;8370;52.556;7.970;2023-12-29T13:04:47;8.90;99.90
16515;DHT22;8370;52.556;7.970;2023-12-29T13:07:17;8.80;99.90
16515;DHT22;8370;52.556;7.970;2023-12-29T13:09:44;8.70;99.90
16515;DHT22;8370;52.556;7.970;2023-12-29T13:12:11;8.70;99.90
16515;DHT22;8370;52.556;7.970;2023-12-29T13:14:38;8.70;99.90
16515;DHT22;8370;52.556;7.970;2023-12-29T13:17:11;8.70;99.90
16515;DHT22;8370;52.556;7.970;2023-12-29T13:19:37;8.60;99.90
16515;DHT22;8370;52.556;7.970;2023-12-29T13:22:07;8.60;99.90
16515;DHT22;8370;52.556;7.970;2023-12-29T13:24:34;8.70;99.90
16515;DHT22;8370;52.556;7.970;2023-12-29T13:27:06;8.70;99.90
16515;DHT22;8370;52.556;7.970;2023-12-29T13:29:35;8.70;99.90
16515;DHT22;8370;52.556;7.970;2023-12-29T13:32:15;8.70;99.90
16515;DHT22;8370;52.556;7.970;2023-12-29T13:34:55;8.70;99.90
16515;DHT22;8370;52.556;7.970;2023-12-29T13:37:36;8.70;99.90
16515;DHT22;8370;52.556;7.970;2023-12-29T13:40:14;8.70;99.90
16515;DHT22;8370;52.556;7.970;2023-12-29T13:42:44;8.80;99.90
16515;DHT22;8370;52.556;7.970;2023-12-29T13:45:12;8.90;99.90
16515;DHT22;8370;52.556;7.970;2023-12-29T13:47:38;8.90;99.90
16515;DHT22;8370;52.556;7.970;2023-12-29T13:50:04;8.90;99.90
16515;DHT22;8370;52.556;7.970;2023-12-29T13:52:31;9.00;99.90
16515;DHT22;8370;52.556;7.970;2023-12-29T13:54:57;8.90;99.90
16515;DHT22;8370;52.556;7.970;2023-12-29T13:57:33;9.10;99.90
16515;DHT22;8370;52.556;7.970;2023-12-29T14:00:21;9.10;99.90
16515;DHT22;8370;52.556;7.970;2023-12-29T14:05:23;9.20;99.90
16515;DHT22;8370;52.556;7.970;2023-12-29T14:08:08;9.20;99.90
16515;DHT22;8370;52.556;7.970;2023-12-29T14:10:34;9.30;99.90
16515;DHT22;8370;52.556;7.970;2023-12-29T14:13:26;9.30;99.90
16515;DHT22;8370;52.556;7.970;2023-12-29T14:15:52;9.40;99.90
16515;DHT22;8370;52.556;7.970;2023-12-29T14:20:58;9.60;99.90
16515;DHT22;8370;52.556;7.970;2023-12-29T14:23:24;9.60;99.90
16515;DHT22;8370;52.556;7.970;2023-12-29T14:25:50;9.60;99.90
16515;DHT22;8370;52.556;7.970;2023-12-29T14:28:17;9.70;99.90
16515;DHT22;8370;52.556;7.970;2023-12-29T14:30:44;9.70;99.90
16515;DHT22;8370;52.556;7.970;2023-12-29T14:33:09;9.80;99.90
16515;DHT22;8370;52.556;7.970;2023-12-29T14:35:35;9.80;99.90
16515;DHT22;8370;52.556;7.970;2023-12-29T14:38:01;9.80;99.90
16515;DHT22;8370;52.556;7.970;2023-12-29T14:40:27;9.80;99.90
16515;DHT22;8370;52.556;7.970;2023-12-29T14:42:52;9.90;99.90
16515;DHT22;8370;52.556;7.970;2023-12-29T14:45:18;9.90;99.90
16515;DHT22;8370;52.556;7.970;2023-12-29T14:47:43;9.90;99.90
16515;DHT22;8370;52.556;7.970;2023-12-29T14:50:11;9.90;99.90
16515;DHT22;8370;52.556;7.970;2023-12-29T14:52:37;9.90;99.90
16515;DHT22;8370;52.556;7.970;2023-12-29T14:55:03;9.90;99.90
16515;DHT22;8370;52.556;7.970;2023-12-29T14:57:28;9.90;99.90
16515;DHT22;8370;52.556;7.970;2023-12-29T14:59:54;9.90;99.90
16515;DHT22;8370;52.556;7.970;2023-12-29T15:02:19;9.90;99.90
16515;DHT22;8370;52.556;7.970;2023-12-29T15:04:45;10.00;99.90
16515;DHT22;8370;52.556;7.970;2023-12-29T15:07:11;9.90;99.90
16515;DHT22;8370;52.556;7.970;2023-12-29T15:09:37;10.00;99.90
16515;DHT22;8370;52.556;7.970;2023-12-29T15:12:02;9.90;99.90
16515;DHT22;8370;52.556;7.970;2023-12-29T15:14:30;9.90;99.90
16515;DHT22;8370;52.556;7.970;2023-12-29T15:16:55;9.90;99.90
16515;DHT22;8370;52.556;7.970;2023-12-29T15:19:21;9.90;99.90
16515;DHT22;8370;52.556;7.970;2023-12-29T15:21:46;9.90;99.90
16515;DHT22;8370;52.556;7.970;2023-12-29T15:24:12;9.90;99.90
16515;DHT22;8370;52.556;7.970;2023-12-29T15:26:37;9.90;99.90
16515;DHT22;8370;52.556;7.970;2023-12-29T15:29:03;9.90;99.90
16515;DHT22;8370;52.556;7.970;2023-12-29T15:31:29;9.80;99.90
16515;DHT22;8370;52.556;7.970;2023-12-29T15:33:55;9.90;99.90
16515;DHT22;8370;52.556;7.970;2023-12-29T15:36:20;9.80;99.90
16515;DHT22;8370;52.556;7.970;2023-12-29T15:38:50;9.90;99.90
16515;DHT22;8370;52.556;7.970;2023-12-29T15:41:16;9.80;99.90
16515;DHT22;8370;52.556;7.970;2023-12-29T15:43:41;9.80;99.90
16515;DHT22;8370;52.556;7.970;2023-12-29T15:46:14;9.80;99.90
16515;DHT22;8370;52.556;7.970;2023-12-29T15:48:40;9.70;99.90
16515;DHT22;8370;52.556;7.970;2023-12-29T15:51:09;9.70;99.90
16515;DHT22;8370;52.556;7.970;2023-12-29T15:53:34;9.70;99.90
16515;DHT22;8370;52.556;7.970;2023-12-29T15:56:00;9.70;99.90
16515;DHT22;8370;52.556;7.970;2023-12-29T15:58:28;9.70;99.90
16515;DHT22;8370;52.556;7.970;2023-12-29T16:00:54;9.70;99.90
16515;DHT22;8370;52.556;7.970;2023-12-29T16:03:19;9.70;99.90
16515;DHT22;8370;52.556;7.970;2023-12-29T16:05:45;9.70;99.90